Time;durP1;ratioP1;P1;durP2;ratioP2;P2;SDS_P1;SDS_P2;PMS_P1;PMS_P2;Temp;Humidity;BMP_temperature;BMP_pressure;BME280_temperature;BME280_humidity;BME280_pressure;Samples;Min_cycle;Max_cycle;Signal;HPM_P1;HPM_P2
2022/05/14 00:00:35;;;;;;;9.90;5.00;;;14.00;99.90;;;;;;5042537;28;20208;-81
2022/05/14 00:03:02;;;;;;;9.00;5.10;;;13.80;99.90;;;;;;5036347;28;20235;-80
2022/05/14 00:05:28;;;;;;;8.35;4.82;;;13.70;99.90;;;;;;5047916;28;20212;-81
2022/05/14 00:07:57;;;;;;;8.50;4.50;;;13.60;99.90;;;;;;5047897;28;20259;-81
2022/05/14 00:10:26;;;;;;;7.90;5.50;;;13.50;99.90;;;;;;5049052;28;20651;-80
2022/05/14 00:13:04;;;;;;;8.20;4.70;;;13.50;99.90;;;;;;5042203;28;20204;-80
2022/05/14 00:15:32;;;;;;;12.82;7.22;;;13.40;99.90;;;;;;5039739;28;20271;-80
2022/05/14 00:17:59;;;;;;;9.25;6.50;;;13.40;99.90;;;;;;5044950;28;20258;-80
2022/05/14 00:20:26;;;;;;;14.65;4.90;;;13.40;99.90;;;;;;5045883;28;20564;-81
2022/05/14 00:22:53;;;;;;;7.53;4.72;;;13.40;99.90;;;;;;5039931;28;20241;-80
2022/05/14 00:25:24;;;;;;;6.85;3.88;;;13.40;99.90;;;;;;5041821;28;20638;-80
2022/05/14 00:27:51;;;;;;;8.57;4.88;;;13.40;99.90;;;;;;5042730;28;20273;-80
2022/05/14 00:30:20;;;;;;;10.05;4.70;;;13.40;99.90;;;;;;5040638;28;20215;-80
2022/05/14 00:32:48;;;;;;;8.25;4.13;;;13.40;99.90;;;;;;5040251;28;20204;-80
2022/05/14 00:35:15;;;;;;;10.18;5.00;;;13.50;99.90;;;;;;5041147;28;20231;-80
2022/05/14 00:37:43;;;;;;;5.90;4.03;;;13.50;99.90;;;;;;5041535;28;20271;-80
2022/05/14 00:40:14;;;;;;;12.55;4.10;;;13.60;99.90;;;;;;5047983;28;20230;-81
2022/05/14 00:42:43;;;;;;;13.68;5.15;;;13.60;99.90;;;;;;5041401;28;20291;-80
2022/05/14 00:45:13;;;;;;;10.40;3.80;;;13.60;99.90;;;;;;5037491;28;20222;-80
2022/05/14 00:47:42;;;;;;;8.43;4.03;;;13.60;99.90;;;;;;5039159;28;20224;-80
2022/05/14 00:50:17;;;;;;;8.20;4.20;;;13.60;99.90;;;;;;5046594;28;20265;-79
2022/05/14 00:52:44;;;;;;;12.27;5.10;;;13.60;99.90;;;;;;5044937;28;20653;-80
2022/05/14 00:55:12;;;;;;;6.95;5.07;;;13.60;99.90;;;;;;5053459;28;20569;-80
2022/05/14 00:57:44;;;;;;;11.40;4.90;;;13.60;99.90;;;;;;5045530;28;20235;-80
2022/05/14 01:00:16;;;;;;;7.43;3.85;;;13.50;99.90;;;;;;5044721;28;20287;-80
2022/05/14 01:02:43;;;;;;;6.80;4.00;;;13.50;99.90;;;;;;5044959;28;20239;-81
2022/05/14 01:05:12;;;;;;;10.50;4.95;;;13.50;99.90;;;;;;5044507;28;20677;-80
2022/05/14 01:07:40;;;;;;;10.35;5.22;;;13.50;99.90;;;;;;5053487;28;20299;-81
2022/05/14 01:10:10;;;;;;;13.18;5.53;;;13.50;99.90;;;;;;5047228;28;20212;-80
2022/05/14 01:12:41;;;;;;;8.25;5.15;;;13.50;99.90;;;;;;5058619;28;20207;-79
2022/05/14 01:15:13;;;;;;;13.85;5.65;;;13.50;99.90;;;;;;5046472;28;20342;-78
2022/05/14 01:17:40;;;;;;;7.22;4.40;;;13.50;99.90;;;;;;5056506;28;20236;-79
2022/05/14 01:20:09;;;;;;;12.80;5.22;;;13.50;99.90;;;;;;5059544;28;20242;-80
2022/05/14 01:22:52;;;;;;;9.52;5.35;;;13.50;99.90;;;;;;5056822;28;20255;-79
2022/05/14 01:28:13;;;;;;;17.13;6.65;;;13.50;99.90;;;;;;5057626;28;20214;-79
2022/05/14 01:30:47;;;;;;;13.35;5.60;;;13.60;99.90;;;;;;5060702;28;20191;-80
2022/05/14 01:33:14;;;;;;;9.27;5.65;;;13.50;99.90;;;;;;5060627;28;20203;-79
2022/05/14 01:35:42;;;;;;;11.25;5.80;;;13.60;99.90;;;;;;5060438;28;20199;-80
2022/05/14 01:38:11;;;;;;;17.35;8.73;;;13.60;99.90;;;;;;5060467;28;20275;-80
2022/05/14 01:40:38;;;;;;;12.77;8.88;;;13.50;99.90;;;;;;5060253;28;20208;-80
2022/05/14 01:43:05;;;;;;;11.93;6.60;;;13.50;99.90;;;;;;5060604;28;20223;-79
2022/05/14 01:45:34;;;;;;;10.80;7.57;;;13.50;99.90;;;;;;5060446;28;20195;-79
2022/05/14 01:48:01;;;;;;;14.43;8.10;;;13.50;99.90;;;;;;5060307;28;20241;-79
2022/05/14 01:50:28;;;;;;;12.90;6.65;;;13.50;99.90;;;;;;5056529;28;20296;-79
2022/05/14 01:52:55;;;;;;;14.32;6.80;;;13.50;99.90;;;;;;5052870;28;20244;-80
2022/05/14 01:55:22;;;;;;;11.95;7.38;;;13.50;99.90;;;;;;5054378;28;20268;-80
2022/05/14 01:57:49;;;;;;;17.25;8.10;;;13.50;99.90;;;;;;5050432;28;20635;-79
2022/05/14 02:00:18;;;;;;;12.15;7.80;;;13.40;99.90;;;;;;5050065;28;20310;-80
2022/05/14 02:02:46;;;;;;;14.38;7.85;;;13.30;99.90;;;;;;5048262;28;20274;-79
2022/05/14 02:05:13;;;;;;;8.68;6.60;;;13.30;99.90;;;;;;5051081;28;20213;-79
2022/05/14 02:07:40;;;;;;;7.35;5.10;;;13.20;99.90;;;;;;5049224;28;20294;-80
2022/05/14 02:10:08;;;;;;;14.77;6.10;;;13.20;99.90;;;;;;5044486;28;20210;-80
2022/05/14 02:12:35;;;;;;;11.95;6.65;;;13.30;99.90;;;;;;5044332;28;20257;-80
2022/05/14 02:15:02;;;;;;;13.07;6.88;;;13.20;99.90;;;;;;5043689;28;20223;-81
2022/05/14 02:17:28;;;;;;;7.22;5.00;;;13.20;99.90;;;;;;5052080;28;20514;-80
2022/05/14 02:19:57;;;;;;;8.27;5.45;;;13.20;99.90;;;;;;5045653;28;20219;-81
2022/05/14 02:22:23;;;;;;;7.90;5.50;;;13.10;99.90;;;;;;5040029;28;20234;-80
2022/05/14 02:24:50;;;;;;;9.02;5.45;;;13.10;99.90;;;;;;5043130;28;20266;-80
2022/05/14 02:27:17;;;;;;;16.23;6.20;;;13.10;99.90;;;;;;5049510;28;20218;-79
2022/05/14 02:29:54;;;;;;;7.68;4.80;;;13.10;99.90;;;;;;5045146;28;20230;-79
2022/05/14 02:32:23;;;;;;;18.05;5.18;;;13.10;99.90;;;;;;5049837;28;20288;-80
2022/05/14 02:34:50;;;;;;;7.82;4.93;;;13.00;99.90;;;;;;5062205;28;20215;-80
2022/05/14 02:37:20;;;;;;;15.73;5.45;;;13.10;99.90;;;;;;5063880;28;20819;-80
2022/05/14 02:39:46;;;;;;;14.77;6.13;;;13.00;99.90;;;;;;5054505;28;20270;-80
2022/05/14 02:42:13;;;;;;;10.15;6.20;;;12.90;99.90;;;;;;5042378;28;20270;-81
2022/05/14 02:44:40;;;;;;;9.55;5.35;;;12.90;99.90;;;;;;5042855;28;20287;-80
2022/05/14 02:47:07;;;;;;;11.77;5.30;;;12.90;99.90;;;;;;5042274;28;20223;-81
2022/05/14 02:49:35;;;;;;;9.68;5.20;;;12.80;99.90;;;;;;5042770;28;20196;-80
2022/05/14 02:52:02;;;;;;;8.52;5.90;;;12.80;99.90;;;;;;5051808;28;20279;-79
2022/05/14 02:54:30;;;;;;;12.25;5.15;;;12.80;99.90;;;;;;5048629;28;20273;-80
2022/05/14 02:56:57;;;;;;;10.20;5.50;;;12.80;99.90;;;;;;5043415;28;20285;-80
2022/05/14 02:59:24;;;;;;;9.13;5.25;;;12.80;99.90;;;;;;5043991;28;20218;-79
2022/05/14 03:01:52;;;;;;;16.95;6.68;;;12.70;99.90;;;;;;5045806;28;20207;-80
2022/05/14 03:04:22;;;;;;;9.65;5.22;;;12.70;99.90;;;;;;5052695;28;20665;-82
2022/05/14 03:06:49;;;;;;;8.32;5.10;;;12.70;99.90;;;;;;5048358;28;20228;-80
2022/05/14 03:09:16;;;;;;;10.00;5.47;;;12.80;99.90;;;;;;5048009;28;20203;-80
2022/05/14 03:11:45;;;;;;;9.48;6.32;;;12.80;99.90;;;;;;5046441;28;20237;-80
2022/05/14 03:14:12;;;;;;;8.40;5.32;;;12.80;99.90;;;;;;5046289;28;20230;-79
2022/05/14 03:16:40;;;;;;;8.70;5.85;;;12.80;99.90;;;;;;5044095;28;20227;-81
2022/05/14 03:19:07;;;;;;;9.50;5.03;;;12.90;99.90;;;;;;5047534;28;20257;-80
2022/05/14 03:21:34;;;;;;;9.48;4.65;;;12.90;99.90;;;;;;5043563;28;20207;-80
2022/05/14 03:24:01;;;;;;;11.52;5.60;;;12.90;99.90;;;;;;5043317;28;20203;-80
2022/05/14 03:26:28;;;;;;;7.78;4.95;;;13.00;99.90;;;;;;5042837;28;20241;-80
2022/05/14 03:28:56;;;;;;;19.83;7.22;;;13.00;99.90;;;;;;5043448;28;20239;-80
2022/05/14 03:31:23;;;;;;;10.27;5.13;;;13.00;99.90;;;;;;5033841;28;20250;-80
2022/05/14 03:33:50;;;;;;;9.50;4.72;;;13.00;99.90;;;;;;5044665;28;20212;-80
2022/05/14 03:36:17;;;;;;;8.05;5.28;;;13.10;99.90;;;;;;5041463;28;20318;-81
2022/05/14 03:38:44;;;;;;;7.35;4.78;;;13.10;99.90;;;;;;5041059;28;20207;-81
2022/05/14 03:41:11;;;;;;;8.05;4.85;;;13.20;99.90;;;;;;5056517;28;20402;-80
2022/05/14 03:43:38;;;;;;;8.73;4.80;;;13.30;99.90;;;;;;5041007;28;20204;-81
2022/05/14 03:46:07;;;;;;;10.18;6.35;;;13.40;99.90;;;;;;5048893;28;20284;-80
2022/05/14 03:48:34;;;;;;;8.90;4.97;;;13.40;99.90;;;;;;5029192;28;20230;-80
2022/05/14 03:51:01;;;;;;;9.18;5.80;;;13.40;99.90;;;;;;5041611;28;20652;-81
2022/05/14 03:53:29;;;;;;;14.57;6.55;;;13.40;99.90;;;;;;5041898;28;20218;-80
2022/05/14 03:55:56;;;;;;;10.05;5.05;;;13.40;99.90;;;;;;5044276;28;20215;-80
2022/05/14 03:58:22;;;;;;;10.18;5.05;;;13.40;99.90;;;;;;5046568;28;20275;-81
2022/05/14 04:00:49;;;;;;;14.40;6.18;;;13.40;99.90;;;;;;5051506;28;20255;-80
2022/05/14 04:03:18;;;;;;;12.32;7.10;;;13.50;99.90;;;;;;5044196;28;20573;-80
2022/05/14 04:05:44;;;;;;;12.15;5.60;;;13.50;99.90;;;;;;5052031;28;20267;-81
2022/05/14 04:08:12;;;;;;;7.65;5.47;;;13.50;99.90;;;;;;5055390;28;20215;-80
2022/05/14 04:10:39;;;;;;;11.27;5.60;;;13.50;99.90;;;;;;5054160;28;20204;-80
2022/05/14 04:13:06;;;;;;;10.95;4.90;;;13.50;99.90;;;;;;5044214;28;20732;-79
2022/05/14 04:15:33;;;;;;;9.38;5.40;;;13.60;99.90;;;;;;5045430;28;20238;-80
2022/05/14 04:18:00;;;;;;;13.60;5.95;;;13.70;99.90;;;;;;5048625;28;20288;-80
2022/05/14 04:20:28;;;;;;;11.80;6.45;;;13.70;99.90;;;;;;5059429;28;20315;-79
2022/05/14 04:22:56;;;;;;;10.25;4.85;;;13.70;99.90;;;;;;5061044;28;20211;-80
2022/05/14 04:25:24;;;;;;;13.43;5.75;;;13.70;99.90;;;;;;5054254;28;20203;-79
2022/05/14 04:28:04;;;;;;;7.75;4.18;;;13.80;99.90;;;;;;5061704;28;20279;-80
2022/05/14 04:30:31;;;;;;;18.50;6.10;;;13.80;99.90;;;;;;5072425;28;20234;-80
2022/05/14 04:32:57;;;;;;;15.00;5.03;;;13.90;99.90;;;;;;5075985;28;20228;-79
2022/05/14 04:35:24;;;;;;;11.52;6.18;;;13.90;99.90;;;;;;5061584;28;20203;-79
2022/05/14 04:37:52;;;;;;;16.17;6.05;;;14.00;99.90;;;;;;5061437;28;20275;-79
2022/05/14 04:40:19;;;;;;;13.57;5.43;;;14.10;99.90;;;;;;5071870;28;20589;-80
2022/05/14 04:42:46;;;;;;;8.55;5.15;;;14.40;99.90;;;;;;5079578;28;20182;-80
2022/05/14 04:45:13;;;;;;;15.73;4.60;;;14.70;99.90;;;;;;5062889;28;20207;-80
2022/05/14 04:47:41;;;;;;;10.15;5.22;;;14.60;99.90;;;;;;5080643;28;20210;-80
2022/05/14 04:50:10;;;;;;;15.98;6.97;;;14.70;99.90;;;;;;5081168;28;20197;-81
2022/05/14 04:52:37;;;;;;;11.57;5.57;;;14.70;99.90;;;;;;5079788;28;20208;-80
2022/05/14 04:55:06;;;;;;;13.05;5.85;;;14.70;99.90;;;;;;5079207;28;20328;-80
2022/05/14 04:57:33;;;;;;;12.00;4.75;;;14.70;99.90;;;;;;5078871;28;20216;-80
2022/05/14 05:00:00;;;;;;;12.93;7.80;;;14.80;99.90;;;;;;5078400;28;20287;-79
2022/05/14 05:05:12;;;;;;;12.43;6.88;;;15.10;99.90;;;;;;5076917;28;20182;-78
2022/05/14 05:07:39;;;;;;;12.00;6.78;;;15.60;99.90;;;;;;5076339;28;20292;-80
2022/05/14 05:10:08;;;;;;;17.48;5.80;;;16.20;99.90;;;;;;5076120;28;20205;-80
2022/05/14 05:12:35;;;;;;;10.93;5.00;;;17.00;99.90;;;;;;5075448;28;20221;-79
2022/05/14 05:15:02;;;;;;;11.00;5.93;;;17.70;99.90;;;;;;5055452;28;20251;-80
2022/05/14 05:17:29;;;;;;;10.50;4.83;;;18.30;99.90;;;;;;5049639;28;20473;-80
2022/05/14 05:19:56;;;;;;;10.13;4.60;;;18.80;99.90;;;;;;5047804;28;20479;-80
2022/05/14 05:22:23;;;;;;;9.57;4.30;;;19.40;99.90;;;;;;5059796;28;20443;-80
2022/05/14 05:24:50;;;;;;;11.40;5.10;;;20.10;99.90;;;;;;5054914;28;20465;-80
2022/05/14 05:27:18;;;;;;;12.37;5.53;;;20.60;97.80;;;;;;5058356;28;20487;-80
2022/05/14 05:29:45;;;;;;;9.90;4.53;;;20.80;96.10;;;;;;5053923;28;20442;-80
2022/05/14 05:32:13;;;;;;;11.10;6.00;;;21.20;95.60;;;;;;5051374;28;20482;-80
2022/05/14 05:34:39;;;;;;;10.30;5.70;;;21.60;94.50;;;;;;5051057;28;21025;-80
2022/05/14 05:37:06;;;;;;;10.23;4.67;;;21.90;93.10;;;;;;5053861;28;20525;-81
2022/05/14 05:39:33;;;;;;;11.27;7.60;;;22.20;92.60;;;;;;5058627;28;20517;-80
2022/05/14 05:42:00;;;;;;;12.40;5.20;;;22.30;91.80;;;;;;5054221;28;20457;-80
2022/05/14 05:44:29;;;;;;;12.20;5.13;;;22.50;91.50;;;;;;5053727;28;20447;-80
2022/05/14 05:46:56;;;;;;;12.20;5.73;;;22.80;91.10;;;;;;5057781;28;20505;-79
2022/05/14 05:49:22;;;;;;;16.10;5.00;;;22.60;90.50;;;;;;5045167;28;20522;-79
2022/05/14 05:51:49;;;;;;;11.00;5.10;;;22.50;90.80;;;;;;5061012;28;20494;-81
2022/05/14 05:57:01;;;;;;;18.20;5.20;;;23.00;90.10;;;;;;5046425;28;20492;-80
2022/05/14 05:59:31;;;;;;;15.07;4.70;;;23.10;89.40;;;;;;5050178;28;20482;-84
2022/05/14 06:01:58;;;;;;;8.77;5.43;;;23.10;89.80;;;;;;5056337;28;20478;-81
2022/05/14 06:04:25;;;;;;;15.93;6.40;;;23.30;88.90;;;;;;5048945;28;20478;-79
2022/05/14 06:06:52;;;;;;;9.83;5.00;;;23.70;88.50;;;;;;5055181;28;20554;-81
2022/05/14 06:09:21;;;;;;;11.30;5.27;;;24.30;86.00;;;;;;5043989;28;20443;-79
2022/05/14 06:11:49;;;;;;;6.93;3.40;;;24.80;84.50;;;;;;5049709;28;20446;-80
2022/05/14 06:14:17;;;;;;;16.77;5.40;;;24.90;83.60;;;;;;5044251;28;20871;-81
2022/05/14 06:16:45;;;;;;;13.60;5.20;;;25.30;82.70;;;;;;5056802;28;20464;-80
2022/05/14 06:19:12;;;;;;;10.67;6.17;;;25.60;80.80;;;;;;5055961;28;20435;-83
2022/05/14 06:21:40;;;;;;;13.60;6.90;;;25.90;80.10;;;;;;5057385;28;20598;-81
2022/05/14 06:24:08;;;;;;;13.50;5.40;;;25.70;79.50;;;;;;5065601;28;20466;-80
2022/05/14 06:26:35;;;;;;;13.97;5.20;;;25.90;79.50;;;;;;5062331;28;20478;-79
2022/05/14 06:29:04;;;;;;;14.20;6.27;;;26.00;79.50;;;;;;5056333;28;20427;-80
2022/05/14 06:31:31;;;;;;;10.23;4.70;;;26.10;78.40;;;;;;5054539;28;20458;-80
2022/05/14 06:34:00;;;;;;;8.77;5.10;;;26.60;77.40;;;;;;5052155;28;20511;-80
2022/05/14 06:36:27;;;;;;;13.53;6.37;;;26.80;76.90;;;;;;5048149;28;20490;-80
2022/05/14 06:38:54;;;;;;;13.10;5.90;;;26.90;76.00;;;;;;5049251;28;20465;-80
2022/05/14 06:41:21;;;;;;;10.83;5.20;;;27.10;75.50;;;;;;5042138;28;20539;-81
2022/05/14 06:43:48;;;;;;;12.50;5.10;;;27.50;74.80;;;;;;5045470;28;20507;-81
2022/05/14 06:46:15;;;;;;;16.40;5.43;;;27.40;74.00;;;;;;5037313;28;20459;-82
2022/05/14 06:48:42;;;;;;;14.83;5.80;;;27.70;74.00;;;;;;5048824;28;21055;-81
2022/05/14 06:51:15;;;;;;;9.50;4.40;;;26.70;74.00;;;;;;5061048;28;20485;-80
2022/05/14 06:53:43;;;;;;;14.53;6.10;;;26.50;75.00;;;;;;5052093;28;20451;-80
2022/05/14 06:56:14;;;;;;;16.33;5.40;;;27.00;75.30;;;;;;5062118;28;20450;-81
2022/05/14 06:58:42;;;;;;;14.73;5.70;;;26.80;74.20;;;;;;5063319;28;20443;-81
2022/05/14 07:01:10;;;;;;;14.27;4.80;;;27.00;73.70;;;;;;5055681;28;20842;-79
2022/05/14 07:06:41;;;;;;;13.93;5.47;;;26.90;73.60;;;;;;5057068;28;20453;-81
2022/05/14 07:09:12;;;;;;;10.53;5.30;;;27.20;73.80;;;;;;5050744;28;20443;-82
2022/05/14 07:11:41;;;;;;;16.87;5.53;;;27.60;72.40;;;;;;5042793;28;20439;-81
2022/05/14 07:14:09;;;;;;;15.13;5.50;;;27.50;72.20;;;;;;5042285;28;20478;-82
2022/05/14 07:16:36;;;;;;;10.30;5.80;;;27.60;72.20;;;;;;5041553;28;20493;-81
2022/05/14 07:19:05;;;;;;;13.00;5.10;;;27.70;71.30;;;;;;5043373;28;20470;-82
2022/05/14 07:21:36;;;;;;;18.03;6.00;;;27.50;70.80;;;;;;5048508;28;21061;-81
2022/05/14 07:24:05;;;;;;;13.13;5.80;;;27.30;71.60;;;;;;5048863;28;20447;-81
2022/05/14 07:26:34;;;;;;;15.93;5.10;;;27.60;71.60;;;;;;5041638;28;20478;-80
2022/05/14 07:29:01;;;;;;;16.47;5.23;;;27.50;71.10;;;;;;5041182;28;20439;-81
2022/05/14 07:31:28;;;;;;;15.50;5.83;;;26.90;71.20;;;;;;5046073;28;20465;-80
2022/05/14 07:33:55;;;;;;;15.50;5.47;;;27.40;72.10;;;;;;5040554;28;20450;-80
2022/05/14 07:36:26;;;;;;;16.23;6.80;;;27.50;71.40;;;;;;5037840;28;20473;-80
2022/05/14 07:38:59;;;;;;;16.10;6.83;;;27.30;71.70;;;;;;5044144;28;20444;-81
2022/05/14 07:41:27;;;;;;;13.07;5.40;;;27.20;71.80;;;;;;5043946;28;20554;-80
2022/05/14 07:43:56;;;;;;;15.93;5.47;;;27.80;71.70;;;;;;5042233;28;20508;-81
2022/05/14 07:46:27;;;;;;;14.73;5.27;;;28.40;70.40;;;;;;5042035;28;20477;-81
2022/05/14 07:48:55;;;;;;;10.63;4.80;;;28.10;69.40;;;;;;5050635;28;20443;-80
2022/05/14 07:51:22;;;;;;;13.30;5.90;;;28.40;69.80;;;;;;5045480;28;20450;-79
2022/05/14 07:53:49;;;;;;;18.57;5.80;;;28.40;69.30;;;;;;5042068;28;20815;-81
2022/05/14 07:56:17;;;;;;;11.40;4.33;;;28.50;67.90;;;;;;5045709;28;20554;-80
2022/05/14 07:58:44;;;;;;;12.53;5.20;;;28.40;68.00;;;;;;5043161;28;20817;-81
2022/05/14 08:01:11;;;;;;;12.93;5.20;;;28.80;67.10;;;;;;5045632;28;20521;-82
2022/05/14 08:03:38;;;;;;;13.50;4.27;;;29.40;66.90;;;;;;5046300;28;20443;-82
2022/05/14 08:06:06;;;;;;;11.67;4.10;;;29.60;65.80;;;;;;5048227;28;20439;-81
2022/05/14 08:08:33;;;;;;;10.97;4.70;;;29.50;62.40;;;;;;5040282;28;20454;-81
2022/05/14 08:10:59;;;;;;;10.60;4.90;;;29.40;62.50;;;;;;5044763;28;20518;-81
2022/05/14 08:13:28;;;;;;;13.93;4.93;;;29.80;62.60;;;;;;5042910;28;20459;-80
2022/05/14 08:15:54;;;;;;;9.73;4.00;;;29.30;63.10;;;;;;5046899;28;20451;-80
2022/05/14 08:18:22;;;;;;;10.87;4.33;;;29.30;62.00;;;;;;5049789;28;20481;-81
2022/05/14 08:20:50;;;;;;;9.40;4.30;;;29.40;61.60;;;;;;5062650;28;20441;-79
2022/05/14 08:26:04;;;;;;;7.03;4.93;;;29.90;59.50;;;;;;5058245;28;20461;-79
2022/05/14 08:28:32;;;;;;;10.20;3.70;;;29.80;59.00;;;;;;5059993;28;20433;-79
2022/05/14 08:31:00;;;;;;;8.63;3.50;;;30.10;57.60;;;;;;5056859;28;20494;-80
2022/05/14 08:33:27;;;;;;;10.73;3.77;;;30.10;57.20;;;;;;5056959;28;20443;-81
2022/05/14 08:35:55;;;;;;;8.77;3.40;;;30.20;56.80;;;;;;5056641;28;20431;-79
2022/05/14 08:38:23;;;;;;;12.00;3.57;;;30.60;56.80;;;;;;5052538;28;20431;-78
2022/05/14 08:40:55;;;;;;;9.47;3.23;;;29.90;55.80;;;;;;5056989;28;20435;-80
2022/05/14 08:43:28;;;;;;;11.20;3.40;;;29.60;56.90;;;;;;5056897;28;20441;-79
2022/05/14 08:45:56;;;;;;;7.17;3.23;;;29.90;56.40;;;;;;5064873;28;20419;-80
2022/05/14 08:48:26;;;;;;;8.80;3.90;;;30.40;56.10;;;;;;5051157;28;20457;-79
2022/05/14 08:50:58;;;;;;;8.47;3.57;;;30.50;55.80;;;;;;5056200;28;20488;-80
2022/05/14 08:53:27;;;;;;;8.50;3.80;;;29.10;55.90;;;;;;5051803;28;20441;-80
2022/05/14 08:56:12;;;;;;;13.00;4.10;;;29.00;56.40;;;;;;5055481;28;20477;-80
2022/05/14 08:58:47;;;;;;;14.13;5.00;;;29.40;56.10;;;;;;5053145;28;20458;-78
2022/05/14 09:01:19;;;;;;;9.83;3.50;;;29.10;55.90;;;;;;5066118;28;20457;-79
2022/05/14 09:03:46;;;;;;;9.23;4.10;;;28.70;56.10;;;;;;5056966;28;20463;-80
2022/05/14 09:06:13;;;;;;;14.17;3.90;;;28.80;56.10;;;;;;5056351;28;20495;-80
2022/05/14 09:08:40;;;;;;;16.00;3.33;;;28.20;57.00;;;;;;5057607;28;20447;-82
2022/05/14 09:11:17;;;;;;;8.40;3.20;;;28.40;57.40;;;;;;5058846;28;20516;-79
2022/05/14 09:13:46;;;;;;;11.00;3.87;;;28.20;56.80;;;;;;5060545;28;20513;-80
2022/05/14 09:16:24;;;;;;;8.50;4.10;;;28.40;57.80;;;;;;5053505;28;20498;-80
2022/05/14 09:18:53;;;;;;;7.97;4.00;;;28.50;57.00;;;;;;5052222;28;20449;-80
2022/05/14 09:21:23;;;;;;;8.77;4.20;;;27.90;56.90;;;;;;5054460;28;20430;-81
2022/05/14 09:23:55;;;;;;;8.17;3.60;;;26.50;59.60;;;;;;5050618;28;20517;-80
2022/05/14 09:26:27;;;;;;;8.60;4.20;;;26.70;60.20;;;;;;5040841;28;20486;-80
2022/05/14 09:28:57;;;;;;;10.50;3.70;;;27.20;59.50;;;;;;5050435;28;20511;-80
2022/05/14 09:31:27;;;;;;;12.47;5.50;;;27.70;59.40;;;;;;5059928;28;20508;-80
2022/05/14 09:34:06;;;;;;;11.17;4.30;;;27.60;58.40;;;;;;5057454;28;20439;-80
2022/05/14 09:36:35;;;;;;;7.73;4.03;;;27.50;57.90;;;;;;5048525;28;20510;-80
2022/05/14 09:39:07;;;;;;;10.90;4.40;;;27.40;59.20;;;;;;5048351;28;20505;-79
2022/05/14 09:41:41;;;;;;;8.03;3.40;;;28.10;58.40;;;;;;5049218;28;20443;-81
2022/05/14 09:44:15;;;;;;;12.60;4.60;;;27.70;57.60;;;;;;5046719;28;20804;-81
2022/05/14 09:46:43;;;;;;;12.27;5.47;;;26.70;59.70;;;;;;5054361;28;20535;-81
2022/05/14 09:49:18;;;;;;;7.57;3.53;;;26.10;60.30;;;;;;5054957;28;20482;-79
2022/05/14 09:51:53;;;;;;;10.70;4.17;;;25.60;61.50;;;;;;5049067;28;20527;-80
2022/05/14 09:54:23;;;;;;;13.30;3.97;;;26.00;60.90;;;;;;5040055;28;20449;-80
2022/05/14 09:57:17;;;;;;;17.20;4.47;;;26.50;60.00;;;;;;5046722;28;20837;-79
2022/05/14 10:00:00;;;;;;;11.87;4.90;;;27.00;59.00;;;;;;5045301;28;20457;-80
2022/05/14 10:02:43;;;;;;;15.33;4.80;;;27.30;59.50;;;;;;5042117;28;20833;-80
2022/05/14 10:05:17;;;;;;;9.63;4.47;;;27.30;59.60;;;;;;5044133;28;20538;-79
2022/05/14 10:07:48;;;;;;;13.23;4.20;;;27.10;59.20;;;;;;5039389;28;20939;-80
2022/05/14 10:10:25;;;;;;;11.90;4.83;;;26.30;59.20;;;;;;5051204;28;20465;-79
2022/05/14 10:12:58;;;;;;;11.07;4.37;;;25.60;60.30;;;;;;5051237;28;20488;-81
2022/05/14 10:15:37;;;;;;;14.13;4.30;;;25.80;61.30;;;;;;5051699;28;20442;-81
2022/05/14 10:18:14;;;;;;;14.03;4.50;;;25.40;61.70;;;;;;5045247;28;20473;-81
2022/05/14 10:20:56;;;;;;;13.47;5.37;;;24.70;63.20;;;;;;5039527;28;20467;-81
2022/05/14 10:26:47;;;;;;;12.37;4.37;;;24.00;64.80;;;;;;5032655;28;20465;-80
2022/05/14 10:29:26;;;;;;;13.13;3.90;;;23.40;66.00;;;;;;5042563;28;20450;-82
2022/05/14 10:32:01;;;;;;;16.80;5.17;;;23.70;67.10;;;;;;5054635;28;20473;-81
2022/05/14 10:34:40;;;;;;;8.57;4.13;;;23.60;66.40;;;;;;5042415;28;20450;-81
2022/05/14 10:37:18;;;;;;;10.90;4.80;;;23.70;66.80;;;;;;5056354;28;20463;-80
2022/05/14 10:39:51;;;;;;;15.90;5.23;;;23.40;66.40;;;;;;5056480;28;20533;-81
2022/05/14 10:42:25;;;;;;;10.30;4.00;;;23.00;67.30;;;;;;5044531;28;20466;-80
2022/05/14 10:44:56;;;;;;;14.10;4.90;;;23.20;67.80;;;;;;5043429;28;20446;-80
2022/05/14 10:47:24;;;;;;;11.57;5.20;;;23.60;66.60;;;;;;5039886;28;20469;-81
2022/05/14 10:49:57;;;;;;;16.30;4.50;;;23.60;66.80;;;;;;5051828;28;20530;-80
2022/05/14 10:52:25;;;;;;;11.03;3.90;;;23.60;66.70;;;;;;5064790;28;20496;-80
2022/05/14 10:54:52;;;;;;;13.50;4.83;;;22.90;66.90;;;;;;5066698;28;20449;-80
2022/05/14 10:57:42;;;;;;;16.00;5.50;;;22.60;68.40;;;;;;5057889;28;20534;-79
2022/05/14 11:00:38;;;;;;;6.73;3.40;;;22.70;69.40;;;;;;5061243;28;20479;-79
2022/05/14 11:03:11;;;;;;;11.83;5.10;;;23.10;68.10;;;;;;5057429;28;20510;-79
2022/05/14 11:05:53;;;;;;;13.93;4.63;;;22.60;69.20;;;;;;5056739;28;20462;-79
2022/05/14 11:08:32;;;;;;;11.90;4.43;;;22.50;70.10;;;;;;5057673;28;20435;-80
2022/05/14 11:11:15;;;;;;;15.03;5.10;;;22.70;70.10;;;;;;5058711;28;20789;-79
2022/05/14 11:13:54;;;;;;;17.60;5.43;;;22.80;70.10;;;;;;5063449;28;20453;-79
2022/05/14 11:16:21;;;;;;;15.20;4.60;;;22.70;69.40;;;;;;5062413;28;20478;-80
2022/05/14 11:18:50;;;;;;;13.73;4.60;;;22.50;70.70;;;;;;5057338;28;20501;-80
2022/05/14 11:21:34;;;;;;;12.37;5.10;;;22.10;70.60;;;;;;5065020;28;20493;-80
2022/05/14 11:24:02;;;;;;;11.20;4.60;;;21.50;72.30;;;;;;5062231;28;20864;-79
2022/05/14 11:26:30;;;;;;;13.70;4.87;;;21.40;74.40;;;;;;5056342;28;20554;-80
2022/05/14 11:28:59;;;;;;;17.07;6.40;;;21.50;74.50;;;;;;5053696;28;20455;-80
2022/05/14 11:31:30;;;;;;;15.30;4.30;;;21.60;74.30;;;;;;5056432;28;21068;-81
2022/05/14 11:34:00;;;;;;;13.10;4.33;;;21.70;74.60;;;;;;5056208;28;20510;-79
2022/05/14 11:36:30;;;;;;;16.10;5.63;;;22.10;74.60;;;;;;5060066;28;20462;-80
2022/05/14 11:39:32;;;;;;;15.20;4.93;;;22.40;73.50;;;;;;5051522;28;20467;-80
2022/05/14 11:42:26;;;;;;;10.83;4.10;;;22.50;73.70;;;;;;5053931;28;20518;-80
2022/05/14 11:44:57;;;;;;;16.30;5.17;;;22.00;73.40;;;;;;5055711;28;20446;-79
2022/05/14 11:47:53;;;;;;;18.43;6.13;;;21.80;74.40;;;;;;5042544;28;20500;-80
2022/05/14 11:50:26;;;;;;;14.33;5.00;;;21.80;74.50;;;;;;5047593;28;20490;-80
2022/05/14 11:53:21;;;;;;;9.23;4.30;;;22.00;75.10;;;;;;5053976;28;20517;-81
2022/05/14 11:55:53;;;;;;;14.00;4.60;;;21.90;74.60;;;;;;5033870;28;20455;-80
2022/05/14 11:58:29;;;;;;;13.97;4.53;;;21.90;74.00;;;;;;5045086;28;20473;-79
2022/05/14 12:00:58;;;;;;;11.50;4.90;;;21.90;74.00;;;;;;5037416;28;20444;-78
2022/05/14 12:03:31;;;;;;;11.53;5.00;;;21.20;74.90;;;;;;5044766;28;20449;-80
2022/05/14 12:06:02;;;;;;;16.20;4.40;;;20.90;76.70;;;;;;5045396;28;20518;-81
2022/05/14 12:08:59;;;;;;;19.97;4.80;;;20.70;77.50;;;;;;5053050;28;20464;-80
2022/05/14 12:11:31;;;;;;;20.27;6.20;;;20.90;78.40;;;;;;5044484;28;20449;-81
2022/05/14 12:14:08;;;;;;;14.97;5.30;;;21.00;78.00;;;;;;5050601;28;20477;-80
2022/05/14 12:16:38;;;;;;;11.90;5.00;;;20.90;77.70;;;;;;5052453;28;20476;-80
2022/05/14 12:19:11;;;;;;;9.43;3.83;;;20.90;78.70;;;;;;5053094;28;20446;-81
2022/05/14 12:21:38;;;;;;;18.40;4.97;;;21.10;77.70;;;;;;5042430;28;20445;-80
2022/05/14 12:24:17;;;;;;;14.03;5.40;;;21.40;76.80;;;;;;5054525;28;20518;-81
2022/05/14 12:26:45;;;;;;;17.10;4.90;;;21.60;76.60;;;;;;5042183;28;20533;-80
2022/05/14 12:29:20;;;;;;;16.73;4.90;;;22.00;76.30;;;;;;5042983;28;20446;-81
2022/05/14 12:34:37;;;;;;;12.57;4.37;;;21.90;73.90;;;;;;5038093;28;20546;-79
2022/05/14 12:37:15;;;;;;;12.20;4.30;;;22.10;74.10;;;;;;5030005;28;20527;-81
2022/05/14 12:39:45;;;;;;;12.67;5.70;;;22.20;73.40;;;;;;5045070;28;20521;-81
2022/05/14 12:42:13;;;;;;;12.73;4.37;;;21.90;72.50;;;;;;5056573;28;20535;-81
2022/05/14 12:44:44;;;;;;;14.73;4.40;;;21.80;73.50;;;;;;5046964;28;20472;-80
2022/05/14 12:47:11;;;;;;;17.70;4.47;;;21.70;74.40;;;;;;5048686;28;20473;-79
2022/05/14 12:49:42;;;;;;;15.60;5.50;;;21.90;75.50;;;;;;5052350;28;20533;-80
2022/05/14 12:52:11;;;;;;;16.53;6.83;;;21.90;74.50;;;;;;5041216;28;20608;-80
2022/05/14 12:54:52;;;;;;;16.47;4.47;;;21.80;75.10;;;;;;5046538;28;20535;-79
2022/05/14 12:57:21;;;;;;;17.17;5.73;;;21.60;75.60;;;;;;5054521;28;20488;-81
2022/05/14 12:59:48;;;;;;;16.53;4.97;;;21.60;75.50;;;;;;5044975;28;20572;-80
2022/05/14 13:02:20;;;;;;;18.53;5.70;;;21.50;75.90;;;;;;5046051;28;20455;-81
2022/05/14 13:04:54;;;;;;;29.73;5.60;;;21.40;76.30;;;;;;5050463;28;20466;-80
2022/05/14 13:07:22;;;;;;;15.33;4.87;;;21.80;77.00;;;;;;5049740;28;20481;-80
2022/05/14 13:09:52;;;;;;;15.63;5.50;;;22.00;76.00;;;;;;5045997;28;20489;-82
2022/05/14 13:12:22;;;;;;;17.13;5.90;;;22.00;75.80;;;;;;5045440;28;20507;-80
2022/05/14 13:14:54;;;;;;;11.57;5.23;;;21.80;75.90;;;;;;5044635;28;20474;-79